createdAt,value
2019-02-07T00:00:37.446Z,96581.36
2019-02-07T00:03:12.185Z,96580.60
2019-02-07T00:05:43.574Z,96576.83
2019-02-07T00:08:15.694Z,96564.64
2019-02-07T00:10:47.108Z,96560.52
2019-02-07T00:13:18.428Z,96555.23
2019-02-07T00:15:53.765Z,96557.05
2019-02-07T00:18:25.750Z,96555.88
2019-02-07T00:21:01.381Z,96547.27
2019-02-07T00:23:34.333Z,96546.44
2019-02-07T00:26:08.101Z,96535.96
2019-02-07T00:28:39.878Z,96532.55
2019-02-07T00:31:12.858Z,96534.64
2019-02-07T00:33:47.536Z,96528.30
2019-02-07T00:36:22.744Z,96529.58
2019-02-07T00:38:57.415Z,96528.61
2019-02-07T00:41:28.627Z,96522.45
2019-02-07T00:44:04.818Z,96517.37
2019-02-07T00:46:37.948Z,96509.33
2019-02-07T00:49:09.876Z,96512.24
2019-02-07T00:51:43.815Z,96503.07
2019-02-07T00:54:18.280Z,96505.34
2019-02-07T00:56:49.526Z,96490.92
2019-02-07T00:59:22.825Z,96490.81
2019-02-07T01:01:58.231Z,96485.03
2019-02-07T01:04:32.576Z,96491.34
2019-02-07T01:07:05.782Z,96481.28
2019-02-07T01:09:37.865Z,96470.59
2019-02-07T01:12:09.896Z,96467.23
2019-02-07T01:14:41.154Z,96462.68
2019-02-07T01:17:14.863Z,96462.28
2019-02-07T01:19:48.848Z,96458.23
2019-02-07T01:22:20.052Z,96446.13
2019-02-07T01:24:54.009Z,96448.16
2019-02-07T01:27:28.175Z,96442.28
2019-02-07T01:30:01.006Z,96440.45
2019-02-07T01:32:32.819Z,96435.06
2019-02-07T01:35:04.007Z,96428.89
2019-02-07T01:37:35.224Z,96430.97
2019-02-07T01:40:11.546Z,96426.65
2019-02-07T01:42:45.558Z,96418.23
2019-02-07T01:45:20.987Z,96414.41
2019-02-07T01:47:53.181Z,96411.83
2019-02-07T01:50:25.269Z,96399.35
2019-02-07T01:52:58.110Z,96394.98
2019-02-07T01:55:32.070Z,96387.41
2019-02-07T01:58:03.681Z,96387.53
2019-02-07T02:00:34.960Z,96382.79
2019-02-07T02:03:09.457Z,96372.45
2019-02-07T02:05:43.005Z,96372.80
2019-02-07T02:08:16.401Z,96365.97
2019-02-07T02:10:47.674Z,96360.78
2019-02-07T02:13:22.233Z,96352.88
2019-02-07T02:15:56.235Z,96352.82
2019-02-07T02:18:29.204Z,96353.02
2019-02-07T02:21:04.254Z,96351.67
2019-02-07T02:23:35.493Z,96352.55
2019-02-07T02:26:08.130Z,96348.42
2019-02-07T02:28:39.343Z,96347.04
2019-02-07T02:31:13.415Z,96338.73
2019-02-07T02:33:45.739Z,96339.75
2019-02-07T02:36:18.250Z,96325.05
2019-02-07T02:38:53.550Z,96322.83
2019-02-07T02:41:25.379Z,96320.98
2019-02-07T02:44:00.874Z,96310.53
2019-02-07T02:46:34.353Z,96309.36
2019-02-07T02:49:08.318Z,96316.46
2019-02-07T02:51:41.459Z,96317.92
2019-02-07T02:54:35.218Z,96318.03
2019-02-07T02:57:08.496Z,96297.17
2019-02-07T02:59:41.352Z,96296.18
2019-02-07T03:02:31.368Z,96286.27
2019-02-07T03:05:43.994Z,96291.06
2019-02-07T03:08:40.604Z,96279.73
2019-02-07T03:11:41.241Z,96282.24
2019-02-07T03:14:42.155Z,96271.45
2019-02-07T03:17:37.429Z,96273.03
2019-02-07T03:20:44.789Z,96270.44
2019-02-07T03:23:42.398Z,96267.05
2019-02-07T03:26:34.337Z,96263.08
2019-02-07T03:29:36.412Z,96265.63
2019-02-07T03:32:22.484Z,96264.97
2019-02-07T03:35:12.485Z,96250.73
2019-02-07T03:38:02.025Z,96258.75
2019-02-07T03:40:59.282Z,96259.22
2019-02-07T03:43:48.244Z,96260.99
2019-02-07T03:46:40.277Z,96244.56
2019-02-07T03:49:19.170Z,96247.78
2019-02-07T03:52:22.273Z,96243.77
2019-02-07T03:55:13.163Z,96249.89
2019-02-07T03:58:03.404Z,96254.66
2019-02-07T04:00:59.828Z,96247.17
2019-02-07T04:03:43.970Z,96243.84
2019-02-07T04:06:49.679Z,96253.22
2019-02-07T04:09:41.983Z,96251.70
2019-02-07T04:12:26.592Z,96250.42
2019-02-07T04:15:17.182Z,96252.42
2019-02-07T04:18:07.615Z,96249.27
2019-02-07T04:20:58.731Z,96238.16
2019-02-07T04:23:52.452Z,96232.85
2019-02-07T04:26:42.744Z,96230.55
2019-02-07T04:29:25.734Z,96229.09
2019-02-07T04:32:18.122Z,96231.45
2019-02-07T04:35:01.628Z,96225.22
2019-02-07T04:38:00.477Z,96226.00
2019-02-07T04:40:41.796Z,96225.14
2019-02-07T04:43:44.194Z,96226.64
2019-02-07T04:46:44.727Z,96220.37
2019-02-07T04:49:28.772Z,96229.42
2019-02-07T04:52:26.882Z,96216.80
2019-02-07T04:55:19.016Z,96217.58
2019-02-07T04:58:11.222Z,96220.50
2019-02-07T05:00:53.905Z,96219.55
2019-02-07T05:04:03.340Z,96220.28
2019-02-07T05:06:48.990Z,96218.14
2019-02-07T05:09:49.900Z,96210.61
2019-02-07T05:12:33.277Z,96210.14
2019-02-07T05:15:26.111Z,96214.27
2019-02-07T05:18:14.184Z,96216.35
2019-02-07T05:21:02.013Z,96211.77
2019-02-07T05:23:47.487Z,96217.19
2019-02-07T05:26:36.847Z,96221.00
2019-02-07T05:29:23.907Z,96218.07
2019-02-07T05:32:12.531Z,96221.42
2019-02-07T05:35:01.763Z,96214.27
2019-02-07T05:37:52.352Z,96223.94
2019-02-07T05:40:43.679Z,96225.16
2019-02-07T05:43:54.765Z,96221.81
2019-02-07T05:46:51.017Z,96224.77
2019-02-07T05:49:38.992Z,96223.73
2019-02-07T05:52:37.126Z,96223.38
2019-02-07T05:55:41.202Z,96222.87
2019-02-07T05:58:45.323Z,96221.94
2019-02-07T06:01:35.946Z,96221.23
2019-02-07T06:04:23.743Z,96223.34
2019-02-07T06:07:18.181Z,96217.88
2019-02-07T06:10:13.479Z,96218.69
2019-02-07T06:13:15.235Z,96219.17
2019-02-07T06:16:11.756Z,96217.92
2019-02-07T06:19:01.129Z,96212.20
2019-02-07T06:22:02.985Z,96221.97
2019-02-07T06:25:04.186Z,96220.27
2019-02-07T06:28:09.390Z,96223.62
2019-02-07T06:30:48.565Z,96225.38
2019-02-07T06:33:38.926Z,96225.25
2019-02-07T06:36:28.125Z,96224.10
2019-02-07T06:39:21.459Z,96225.69
2019-02-07T06:42:20.140Z,96229.73
2019-02-07T06:45:09.819Z,96235.35
2019-02-07T06:48:00.350Z,96236.80
2019-02-07T06:50:50.512Z,96236.33
2019-02-07T06:53:39.813Z,96232.59
2019-02-07T06:56:30.562Z,96228.28
2019-02-07T06:59:22.397Z,96238.81
2019-02-07T07:02:20.665Z,96238.84
2019-02-07T07:05:25.456Z,96239.12
2019-02-07T07:08:35.805Z,96243.37
2019-02-07T07:11:21.953Z,96238.79
2019-02-07T07:14:21.569Z,96241.28
2019-02-07T07:17:06.534Z,96243.20
2019-02-07T07:19:54.579Z,96245.98
2019-02-07T07:22:53.762Z,96242.74
2019-02-07T07:25:54.636Z,96244.67
2019-02-07T07:28:45.541Z,96246.51
2019-02-07T07:31:37.539Z,96244.84
2019-02-07T07:34:29.544Z,96249.83
2019-02-07T07:37:24.583Z,96254.59
2019-02-07T07:40:22.369Z,96245.22
2019-02-07T07:43:05.916Z,96249.67
2019-02-07T07:46:00.544Z,96256.94
2019-02-07T07:48:54.198Z,96251.73
2019-02-07T07:51:44.396Z,96253.98
2019-02-07T07:54:40.833Z,96258.45
2019-02-07T07:57:31.650Z,96258.30
2019-02-07T08:00:26.315Z,96252.50
2019-02-07T08:03:24.375Z,96248.19
2019-02-07T08:06:35.110Z,96257.98
2019-02-07T08:09:20.778Z,96256.63
2019-02-07T08:12:18.493Z,96255.35
2019-02-07T08:15:09.261Z,96255.16
2019-02-07T08:18:01.279Z,96254.77
2019-02-07T08:20:45.343Z,96248.69
2019-02-07T08:23:35.772Z,96249.96
2019-02-07T08:26:40.101Z,96247.64
2019-02-07T08:29:30.662Z,96252.09
2019-02-07T08:32:32.566Z,96244.06
2019-02-07T08:35:34.303Z,96246.52
2019-02-07T08:38:39.339Z,96239.02
2019-02-07T08:41:27.003Z,96237.08
2019-02-07T08:44:21.310Z,96224.22
2019-02-07T08:47:10.687Z,96226.63
2019-02-07T08:52:59.712Z,96219.41
2019-02-07T08:55:51.021Z,96219.80
2019-02-07T08:58:55.126Z,96215.90
2019-02-07T09:01:38.035Z,96222.26
2019-02-07T09:04:24.251Z,96220.28
2019-02-07T09:07:18.021Z,96217.94
2019-02-07T09:10:23.496Z,96215.02
2019-02-07T09:13:10.369Z,96214.92
2019-02-07T09:15:52.098Z,96220.61
2019-02-07T09:18:44.755Z,96218.80
2019-02-07T09:21:37.533Z,96215.65
2019-02-07T09:24:32.808Z,96217.98
2019-02-07T09:27:22.892Z,96208.56
2019-02-07T09:30:11.425Z,96196.55
2019-02-07T09:33:03.588Z,96204.97
2019-02-07T09:36:04.574Z,96213.55
2019-02-07T09:38:45.069Z,96209.27
2019-02-07T09:41:47.796Z,96204.48
2019-02-07T09:44:46.358Z,96204.82
2019-02-07T09:47:42.892Z,96196.36
2019-02-07T09:50:32.196Z,96192.48
2019-02-07T09:53:26.342Z,96191.16
2019-02-07T09:56:19.857Z,96190.94
2019-02-07T09:59:22.378Z,96189.10
2019-02-07T10:02:28.424Z,96189.87
2019-02-07T10:05:10.586Z,96190.61
2019-02-07T10:08:21.747Z,96185.31
2019-02-07T10:11:16.184Z,96187.64
2019-02-07T10:14:09.914Z,96179.12
2019-02-07T10:17:08.832Z,96175.67
2019-02-07T10:19:57.946Z,96174.67
2019-02-07T10:23:08.842Z,96164.24
2019-02-07T10:26:01.407Z,96170.47
2019-02-07T10:28:48.148Z,96163.39
2019-02-07T10:31:48.329Z,96163.42
2019-02-07T10:34:40.422Z,96156.54
2019-02-07T10:37:41.770Z,96158.38
2019-02-07T10:40:33.785Z,96144.05
2019-02-07T10:43:27.201Z,96144.73
2019-02-07T10:46:25.781Z,96137.41
2019-02-07T10:49:15.556Z,96136.17
2019-02-07T10:52:06.420Z,96133.48
2019-02-07T10:55:06.819Z,96120.80
2019-02-07T10:57:52.099Z,96119.88
2019-02-07T11:00:56.360Z,96112.92
2019-02-07T11:03:57.879Z,96115.13
2019-02-07T11:06:56.534Z,96105.78
2019-02-07T11:09:46.567Z,96100.51
2019-02-07T11:12:39.092Z,96090.63
2019-02-07T11:15:38.288Z,96095.85
2019-02-07T11:18:32.595Z,96090.11
2019-02-07T11:21:21.384Z,96091.67
2019-02-07T11:24:12.781Z,96082.83
2019-02-07T11:27:02.257Z,96072.46
2019-02-07T11:29:49.699Z,96073.43
2019-02-07T11:32:47.833Z,96071.53
2019-02-07T11:35:53.528Z,96064.23
2019-02-07T11:38:41.989Z,96061.59
2019-02-07T11:41:49.458Z,96062.14
2019-02-07T11:44:39.724Z,96054.47
2019-02-07T11:47:31.943Z,96054.63
2019-02-07T11:50:31.528Z,96056.42
2019-02-07T11:53:28.878Z,96047.31
2019-02-07T11:56:19.599Z,96045.09
2019-02-07T11:59:08.506Z,96043.66
2019-02-07T12:02:08.733Z,96042.05
2019-02-07T12:04:43.448Z,96034.44
2019-02-07T12:07:25.024Z,96037.18
2019-02-07T12:10:34.844Z,96032.83
2019-02-07T12:13:36.490Z,96033.23
2019-02-07T12:16:27.829Z,96030.14
2019-02-07T12:19:20.248Z,96026.86
2019-02-07T12:22:25.395Z,96023.88
2019-02-07T12:25:14.168Z,96013.98
2019-02-07T12:28:12.580Z,96013.22
2019-02-07T12:31:02.954Z,96011.29
2019-02-07T12:33:56.169Z,96008.08
2019-02-07T12:36:58.079Z,96008.61
2019-02-07T12:39:47.568Z,96008.67
2019-02-07T12:42:36.995Z,96005.25
2019-02-07T12:45:33.354Z,96002.47
2019-02-07T12:48:19.222Z,96003.80
2019-02-07T12:51:17.019Z,96009.93
2019-02-07T12:54:11.930Z,96003.80
2019-02-07T12:57:02.836Z,96003.57
2019-02-07T12:59:45.482Z,96007.59
2019-02-07T13:02:54.803Z,96005.39
2019-02-07T13:05:53.694Z,96005.80
2019-02-07T13:08:36.800Z,95999.09
2019-02-07T13:11:31.218Z,95997.98
2019-02-07T13:14:33.174Z,96002.20
2019-02-07T13:17:31.966Z,95996.44
2019-02-07T13:20:10.903Z,95993.86
2019-02-07T13:23:01.667Z,95993.04
2019-02-07T13:25:49.529Z,95993.20
2019-02-07T13:28:33.952Z,95991.19
2019-02-07T13:31:26.393Z,95988.73
2019-02-07T13:34:18.596Z,95989.08
2019-02-07T13:37:13.492Z,95983.09
2019-02-07T13:40:05.404Z,95989.88
2019-02-07T13:43:03.918Z,95981.08
2019-02-07T13:45:53.401Z,95982.54
2019-02-07T13:48:33.030Z,95980.79
2019-02-07T13:51:40.590Z,95980.35
2019-02-07T13:54:30.219Z,95973.39
2019-02-07T13:57:23.065Z,95978.42
2019-02-07T14:00:18.608Z,95979.94
2019-02-07T14:03:07.852Z,95982.87
2019-02-07T14:05:58.036Z,95976.72
2019-02-07T14:08:57.686Z,95977.98
2019-02-07T14:11:50.436Z,95982.33
2019-02-07T14:14:38.156Z,95984.53
2019-02-07T14:17:28.292Z,95986.05
2019-02-07T14:20:19.901Z,95983.08
2019-02-07T14:23:13.170Z,95978.19
2019-02-07T14:25:59.831Z,95985.71
2019-02-07T14:28:57.091Z,95983.51
2019-02-07T14:32:07.655Z,95977.64
2019-02-07T14:35:16.780Z,95984.77
2019-02-07T14:38:07.149Z,95977.92
2019-02-07T14:40:56.508Z,95970.65
2019-02-07T14:43:53.916Z,95966.20
2019-02-07T14:46:44.452Z,95980.81
2019-02-07T14:49:15.673Z,95979.94
2019-02-07T14:51:47.797Z,95977.58
2019-02-07T14:54:21.032Z,95978.23
2019-02-07T14:56:55.342Z,95971.23
2019-02-07T14:59:28.784Z,95973.77
2019-02-07T15:02:03.630Z,95981.86
2019-02-07T15:07:07.811Z,95968.59
2019-02-07T15:09:41.752Z,95983.61
2019-02-07T15:12:17.520Z,95974.38
2019-02-07T15:14:51.719Z,95975.72
2019-02-07T15:17:24.051Z,95973.27
2019-02-07T15:19:56.985Z,95973.27
2019-02-07T15:22:31.056Z,95977.21
2019-02-07T15:25:02.680Z,95975.44
2019-02-07T15:27:35.661Z,95973.01
2019-02-07T15:30:12.574Z,95982.48
2019-02-07T15:32:47.407Z,95976.08
2019-02-07T15:35:22.524Z,95982.73
2019-02-07T15:37:55.159Z,95973.20
2019-02-07T15:40:28.933Z,95975.42
2019-02-07T15:43:02.892Z,95980.31
2019-02-07T15:45:35.830Z,95981.27
2019-02-07T15:48:08.232Z,95980.12
2019-02-07T15:50:41.730Z,95980.59
2019-02-07T15:53:15.948Z,95976.13
2019-02-07T15:55:48.840Z,95969.34
2019-02-07T15:58:29.699Z,95974.23
2019-02-07T16:01:17.545Z,95973.22
2019-02-07T16:04:15.360Z,95975.56
2019-02-07T16:06:47.624Z,95973.31
2019-02-07T16:09:22.607Z,95979.58
2019-02-07T16:11:55.109Z,95981.73
2019-02-07T16:14:28.899Z,95980.20
2019-02-07T16:17:03.116Z,95984.43
2019-02-07T16:19:35.702Z,95984.80
2019-02-07T16:22:08.088Z,95990.63
2019-02-07T16:24:40.065Z,95991.04
2019-02-07T16:27:13.005Z,95998.31
2019-02-07T16:29:46.176Z,96007.67
2019-02-07T16:32:20.189Z,95998.02
2019-02-07T16:34:54.102Z,95993.97
2019-02-07T16:37:28.591Z,96005.31
2019-02-07T16:40:02.101Z,96007.05
2019-02-07T16:42:35.672Z,96004.17
2019-02-07T16:45:09.389Z,96007.52
2019-02-07T16:47:42.139Z,96005.22
2019-02-07T16:50:16.758Z,96003.89
2019-02-07T16:52:49.147Z,96000.89
2019-02-07T16:55:25.325Z,96006.71
2019-02-07T16:58:00.894Z,96006.22
2019-02-07T17:00:35.396Z,96005.72
2019-02-07T17:03:07.768Z,95940.11
2019-02-07T17:05:38.951Z,96011.48
2019-02-07T17:14:52.041Z,96024.95
2019-02-07T17:17:28.170Z,96029.59
2019-02-07T17:19:59.391Z,96038.56
2019-02-07T17:22:33.397Z,96037.16
2019-02-07T17:25:07.369Z,96038.25
2019-02-07T17:27:39.377Z,96040.80
2019-02-07T17:30:14.596Z,96044.02
2019-02-07T17:32:48.704Z,96047.89
2019-02-07T17:35:21.151Z,96049.12
2019-02-07T17:37:54.274Z,96046.50
2019-02-07T17:40:28.273Z,96060.97
2019-02-07T17:42:59.509Z,96063.37
2019-02-07T17:45:32.512Z,96067.42
2019-02-07T17:48:04.393Z,96070.04
2019-02-07T17:50:35.751Z,96073.48
2019-02-07T17:53:09.733Z,96069.74
2019-02-07T17:55:43.025Z,96081.55
2019-02-07T17:58:17.416Z,96075.73
2019-02-07T18:01:00.149Z,96088.32
2019-02-07T18:03:31.629Z,96086.92
2019-02-07T18:06:06.377Z,96087.17
2019-02-07T18:08:38.227Z,96086.52
2019-02-07T18:11:10.738Z,96095.09
2019-02-07T18:13:42.462Z,96100.25
2019-02-07T18:16:14.603Z,96101.91
2019-02-07T18:18:50.323Z,96105.24
2019-02-07T18:21:33.706Z,96104.52
2019-02-07T18:23:56.651Z,96100.41
2019-02-07T18:26:30.763Z,96097.41
2019-02-07T18:29:04.702Z,96096.98
2019-02-07T18:31:36.258Z,96096.47
2019-02-07T18:34:10.797Z,96098.56
2019-02-07T18:36:43.547Z,96101.13
2019-02-07T18:39:14.798Z,96097.96
2019-02-07T18:41:48.049Z,96108.88
2019-02-07T18:44:19.621Z,96116.89
2019-02-07T18:46:53.789Z,96108.56
2019-02-07T18:49:27.527Z,96107.97
2019-02-07T18:51:58.791Z,96113.17
2019-02-07T18:54:32.718Z,96110.77
2019-02-07T18:57:06.722Z,96106.94
2019-02-07T18:59:39.541Z,96108.33
2019-02-07T19:02:12.321Z,96105.15
2019-02-07T19:04:45.698Z,96103.16
2019-02-07T19:07:19.713Z,96100.77
2019-02-07T19:09:53.731Z,96098.33
2019-02-07T19:12:25.841Z,96099.22
2019-02-07T19:14:58.596Z,96095.69
2019-02-07T19:17:29.849Z,96101.02
2019-02-07T19:20:03.865Z,96103.59
2019-02-07T19:22:36.801Z,96105.20
2019-02-07T19:25:11.184Z,96103.06
2019-02-07T19:27:42.721Z,96104.83
2019-02-07T19:30:25.219Z,96110.29
2019-02-07T19:32:59.851Z,96104.73
2019-02-07T19:35:33.448Z,96108.44
2019-02-07T19:38:06.707Z,96102.98
2019-02-07T19:40:38.358Z,96095.48
2019-02-07T19:43:09.672Z,96102.22
2019-02-07T19:45:44.683Z,96111.42
2019-02-07T19:48:19.193Z,96116.05
2019-02-07T19:50:51.750Z,96118.61
2019-02-07T19:53:26.749Z,96121.19
2019-02-07T19:55:59.184Z,96126.53
2019-02-07T19:58:31.904Z,96125.55
2019-02-07T20:01:06.003Z,96127.36
2019-02-07T20:03:39.035Z,96131.91
2019-02-07T20:06:10.663Z,96128.27
2019-02-07T20:08:41.944Z,96132.52
2019-02-07T20:11:16.042Z,96136.55
2019-02-07T20:13:51.138Z,96139.30
2019-02-07T20:16:22.766Z,96140.62
2019-02-07T20:18:58.780Z,96145.35
2019-02-07T20:21:30.179Z,96140.69
2019-02-07T20:24:04.208Z,96145.60
2019-02-07T20:26:36.340Z,96142.89
2019-02-07T20:29:09.295Z,96146.41
2019-02-07T20:31:42.046Z,96142.84
2019-02-07T20:34:14.026Z,96140.31
2019-02-07T20:36:45.553Z,96146.73
2019-02-07T20:39:19.203Z,96138.66
2019-02-07T20:41:53.196Z,96137.97
2019-02-07T20:44:27.232Z,96128.63
2019-02-07T20:47:02.755Z,96136.91
2019-02-07T20:49:35.382Z,96136.60
2019-02-07T20:52:07.982Z,96138.03
2019-02-07T20:54:40.593Z,96133.97
2019-02-07T20:57:14.275Z,96137.31
2019-02-07T20:59:48.360Z,96135.11
2019-02-07T21:02:22.299Z,96142.89
2019-02-07T21:04:53.550Z,96145.18
2019-02-07T21:07:27.115Z,96145.06
2019-02-07T21:09:58.351Z,96145.66
2019-02-07T21:12:33.141Z,96146.91
2019-02-07T21:15:09.728Z,96146.91
2019-02-07T21:17:46.784Z,96154.68
2019-02-07T21:20:26.584Z,96151.22
2019-02-07T21:23:00.720Z,96152.22
2019-02-07T21:25:37.723Z,96154.99
2019-02-07T21:28:12.320Z,96153.30
2019-02-07T21:30:44.399Z,96160.31
2019-02-07T21:33:16.553Z,96163.66
2019-02-07T21:35:50.425Z,96155.50
2019-02-07T21:38:23.534Z,96160.00
2019-02-07T21:40:56.735Z,96168.19
2019-02-07T21:43:29.579Z,96158.94
2019-02-07T21:46:03.514Z,96167.04
2019-02-07T21:48:36.997Z,96171.82
2019-02-07T21:51:10.556Z,96171.05
2019-02-07T21:53:42.442Z,96174.65
2019-02-07T21:56:15.390Z,96172.23
2019-02-07T21:58:46.964Z,96178.92
2019-02-07T22:01:19.778Z,96183.53
2019-02-07T22:03:58.696Z,96171.53
2019-02-07T22:06:31.568Z,96167.56
2019-02-07T22:09:12.730Z,96173.66
2019-02-07T22:11:45.670Z,96174.95
2019-02-07T22:14:19.645Z,96178.77
2019-02-07T22:16:53.679Z,96185.98
2019-02-07T22:19:24.890Z,96183.55
2019-02-07T22:21:58.721Z,96184.33
2019-02-07T22:24:33.107Z,96182.78
2019-02-07T22:27:06.646Z,96188.59
2019-02-07T22:29:39.764Z,96188.28
2019-02-07T22:32:13.292Z,96189.86
2019-02-07T22:34:45.713Z,96184.66
2019-02-07T22:37:16.908Z,96189.45
2019-02-07T22:39:50.142Z,96184.48
2019-02-07T22:42:23.308Z,96183.64
2019-02-07T22:44:57.315Z,96194.22
2019-02-07T22:47:29.733Z,96195.50
2019-02-07T22:50:03.731Z,96195.50
2019-02-07T22:52:36.348Z,96200.94
2019-02-07T22:55:08.342Z,96211.17
2019-02-07T22:57:43.635Z,96211.34
2019-02-07T23:01:10.215Z,96220.63
2019-02-07T23:03:46.515Z,96214.30
2019-02-07T23:06:18.809Z,96216.70
2019-02-07T23:08:55.416Z,96212.99
2019-02-07T23:11:26.719Z,96214.78
2019-02-07T23:13:58.125Z,96218.08
2019-02-07T23:16:31.541Z,96210.91
2019-02-07T23:19:02.786Z,96209.17
2019-02-07T23:21:36.217Z,96221.97
2019-02-07T23:24:08.155Z,96225.34
2019-02-07T23:26:39.797Z,96225.69
2019-02-07T23:29:13.372Z,96217.62
2019-02-07T23:31:45.784Z,96226.54
2019-02-07T23:34:17.955Z,96226.33
2019-02-07T23:36:50.922Z,96227.99
2019-02-07T23:39:25.421Z,96221.56
2019-02-07T23:41:58.239Z,96226.18
2019-02-07T23:44:29.971Z,96225.00
2019-02-07T23:47:04.047Z,96227.20
2019-02-07T23:49:36.448Z,96228.34
2019-02-07T23:52:09.113Z,96225.96
2019-02-07T23:54:44.760Z,96228.20
2019-02-07T23:57:17.306Z,96235.23
2019-02-07T23:59:51.184Z,96233.76
